Time;durP1;ratioP1;P1;durP2;ratioP2;P2;SDS_P1;SDS_P2;PMS_P1;PMS_P2;Temp;Humidity;BMP_temperature;BMP_pressure;BME280_temperature;BME280_humidity;BME280_pressure;Samples;Min_cycle;Max_cycle;Signal;HPM_P1;HPM_P2
2023/06/17 00:02:09;;;;;;;29.88;25.55;;;15.60;99.90;;;;;;5049021;28;20025;-73
2023/06/17 00:04:36;;;;;;;28.98;24.63;;;15.60;99.90;;;;;;5048706;28;20033;-73
2023/06/17 00:07:02;;;;;;;27.77;23.00;;;15.60;99.90;;;;;;5049647;28;20071;-73
2023/06/17 00:09:28;;;;;;;28.35;22.98;;;15.60;99.90;;;;;;5048797;28;20041;-76
2023/06/17 00:11:56;;;;;;;24.33;20.20;;;15.60;99.90;;;;;;5049397;28;20096;-73
2023/06/17 00:14:22;;;;;;;25.63;22.10;;;15.60;99.90;;;;;;5049393;28;20021;-73
2023/06/17 00:16:49;;;;;;;25.25;21.50;;;15.70;99.90;;;;;;5048381;28;20037;-74
2023/06/17 00:19:17;;;;;;;24.20;21.15;;;15.60;99.90;;;;;;5048904;28;20556;-73
2023/06/17 00:21:44;;;;;;;23.00;20.55;;;15.60;99.90;;;;;;5049376;28;20427;-75
2023/06/17 00:24:13;;;;;;;23.80;19.63;;;15.70;99.90;;;;;;5049840;28;20469;-75
2023/06/17 00:26:39;;;;;;;23.80;20.83;;;15.70;99.90;;;;;;5050245;28;20017;-75
2023/06/17 00:29:06;;;;;;;26.15;19.60;;;15.70;99.90;;;;;;5053683;28;20048;-74
2023/06/17 00:31:32;;;;;;;24.70;20.40;;;15.70;99.90;;;;;;5052708;28;20332;-75
2023/06/17 00:33:58;;;;;;;23.98;19.20;;;15.70;99.90;;;;;;5053515;28;20029;-74
2023/06/17 00:36:23;;;;;;;24.90;21.67;;;15.70;99.90;;;;;;5053255;28;20363;-74
2023/06/17 00:38:50;;;;;;;28.45;22.13;;;15.70;99.90;;;;;;5052551;28;20040;-74
2023/06/17 00:41:16;;;;;;;26.70;20.88;;;15.70;99.90;;;;;;5053577;28;20037;-74
2023/06/17 00:43:42;;;;;;;22.83;20.35;;;15.80;99.90;;;;;;5052642;28;20029;-74
2023/06/17 00:46:09;;;;;;;20.10;17.63;;;15.80;99.90;;;;;;5052120;28;20064;-74
2023/06/17 00:48:35;;;;;;;27.92;21.83;;;15.80;99.90;;;;;;5053035;28;20130;-74
2023/06/17 00:51:04;;;;;;;30.77;23.23;;;15.90;99.90;;;;;;5051951;28;20054;-74
2023/06/17 00:53:31;;;;;;;28.48;23.38;;;15.90;99.90;;;;;;5052015;28;20120;-77
2023/06/17 00:55:58;;;;;;;28.95;21.85;;;15.90;99.90;;;;;;5053235;28;20450;-74
2023/06/17 00:58:26;;;;;;;23.80;19.90;;;15.90;99.90;;;;;;5053116;28;20113;-74
2023/06/17 01:00:51;;;;;;;27.17;22.38;;;15.80;99.90;;;;;;5053023;28;20036;-75
2023/06/17 01:03:17;;;;;;;21.30;19.00;;;15.90;99.90;;;;;;5053032;28;20029;-75
2023/06/17 01:05:47;;;;;;;26.30;23.23;;;15.80;99.90;;;;;;5052423;28;20025;-74
2023/06/17 01:08:34;;;;;;;29.63;24.10;;;15.80;99.90;;;;;;5052946;28;20423;-75
2023/06/17 01:11:10;;;;;;;27.05;22.75;;;15.80;99.90;;;;;;5053095;28;20478;-75
2023/06/17 01:13:37;;;;;;;23.70;21.23;;;15.80;99.90;;;;;;5052364;28;20029;-75
2023/06/17 01:16:04;;;;;;;26.08;22.33;;;15.70;99.90;;;;;;5053117;28;20108;-74
2023/06/17 01:18:32;;;;;;;26.83;22.17;;;15.70;99.90;;;;;;5053160;28;20036;-77
2023/06/17 01:20:58;;;;;;;21.42;19.13;;;15.70;99.90;;;;;;5053327;28;20094;-75
2023/06/17 01:23:32;;;;;;;25.95;20.45;;;15.70;99.90;;;;;;5053239;28;20032;-75
2023/06/17 01:25:58;;;;;;;25.70;20.42;;;15.80;99.90;;;;;;5051447;28;20052;-75
2023/06/17 01:28:24;;;;;;;30.23;24.55;;;15.70;99.90;;;;;;5052625;28;20429;-74
2023/06/17 01:30:54;;;;;;;31.30;25.27;;;15.70;99.90;;;;;;5051887;28;20072;-74
2023/06/17 01:33:21;;;;;;;33.65;26.48;;;15.70;99.90;;;;;;5052764;28;20101;-74
2023/06/17 01:36:02;;;;;;;30.77;23.35;;;15.70;99.90;;;;;;5052388;28;20060;-74
2023/06/17 01:38:36;;;;;;;29.27;24.73;;;15.60;99.90;;;;;;5052347;28;20196;-73
2023/06/17 01:41:09;;;;;;;29.95;25.73;;;15.70;99.90;;;;;;5052718;28;20024;-73
2023/06/17 01:43:35;;;;;;;27.65;22.77;;;15.70;99.90;;;;;;5052057;28;20049;-75
2023/06/17 01:46:02;;;;;;;30.75;26.95;;;15.70;99.90;;;;;;5052649;28;20044;-74
2023/06/17 01:48:28;;;;;;;38.58;29.17;;;15.70;99.90;;;;;;5052233;28;20486;-74
2023/06/17 01:50:54;;;;;;;33.40;26.95;;;15.70;99.90;;;;;;5051694;28;20049;-75
2023/06/17 01:53:22;;;;;;;26.27;21.40;;;15.70;99.90;;;;;;5052571;28;20431;-75
2023/06/17 01:55:48;;;;;;;25.30;22.67;;;15.70;99.90;;;;;;5051883;28;20047;-76
2023/06/17 01:58:15;;;;;;;27.80;23.95;;;15.70;99.90;;;;;;5051885;28;20033;-76
2023/06/17 02:00:40;;;;;;;27.02;24.08;;;15.70;99.90;;;;;;5051736;28;20029;-76
2023/06/17 02:03:06;;;;;;;28.48;22.83;;;15.70;99.90;;;;;;5052106;28;20029;-75
2023/06/17 02:05:32;;;;;;;25.83;21.15;;;15.70;99.90;;;;;;5050720;28;20052;-77
2023/06/17 02:07:59;;;;;;;28.85;23.77;;;15.70;99.90;;;;;;5051524;28;20112;-76
2023/06/17 02:10:25;;;;;;;25.80;21.05;;;15.70;99.90;;;;;;5052348;28;20369;-76
2023/06/17 02:12:51;;;;;;;27.85;22.30;;;15.60;99.90;;;;;;5051499;28;20362;-75
2023/06/17 02:15:17;;;;;;;20.27;18.08;;;15.60;99.90;;;;;;5052195;28;20035;-76
2023/06/17 02:17:43;;;;;;;20.20;17.27;;;15.70;99.90;;;;;;5050066;28;20029;-75
2023/06/17 02:20:10;;;;;;;20.55;18.45;;;15.70;99.90;;;;;;5052298;28;20095;-75
2023/06/17 02:22:36;;;;;;;20.42;18.30;;;15.70;99.90;;;;;;5052247;28;20098;-78
2023/06/17 02:25:03;;;;;;;16.45;14.63;;;15.50;99.90;;;;;;5052252;28;20029;-75
2023/06/17 02:27:29;;;;;;;14.77;13.30;;;15.50;99.90;;;;;;5051489;28;20044;-75
2023/06/17 02:29:55;;;;;;;17.92;16.02;;;15.50;99.90;;;;;;5051555;28;20353;-75
2023/06/17 02:32:20;;;;;;;19.20;17.20;;;15.50;99.90;;;;;;5052913;28;20473;-75
2023/06/17 02:34:48;;;;;;;20.75;18.55;;;15.50;99.90;;;;;;5051361;28;20363;-76
2023/06/17 02:37:15;;;;;;;17.63;15.82;;;15.40;99.90;;;;;;5051767;28;20041;-75
2023/06/17 02:39:41;;;;;;;17.30;15.57;;;15.50;99.90;;;;;;5050930;28;20029;-75
2023/06/17 02:42:08;;;;;;;16.52;14.80;;;15.50;99.90;;;;;;5051646;28;20223;-74
2023/06/17 02:44:33;;;;;;;16.35;14.57;;;15.40;99.90;;;;;;5051419;28;20029;-75
2023/06/17 02:47:00;;;;;;;20.00;16.98;;;15.40;99.90;;;;;;5050610;28;20458;-74
2023/06/17 02:49:26;;;;;;;17.67;14.18;;;15.40;99.90;;;;;;5050250;28;20037;-74
2023/06/17 02:51:52;;;;;;;17.23;15.50;;;15.40;99.90;;;;;;5050608;28;20584;-74
2023/06/17 02:54:17;;;;;;;17.00;15.30;;;15.40;99.90;;;;;;5051024;28;20039;-74
2023/06/17 02:56:43;;;;;;;17.15;15.40;;;15.40;99.90;;;;;;5050741;28;20025;-74
2023/06/17 02:59:09;;;;;;;14.32;12.95;;;15.30;99.90;;;;;;5051013;28;20485;-74
2023/06/17 03:01:42;;;;;;;15.05;13.45;;;15.30;99.90;;;;;;5051099;28;20035;-74
2023/06/17 03:04:10;;;;;;;15.77;13.85;;;15.30;99.90;;;;;;5051165;28;20033;-74
2023/06/17 03:06:37;;;;;;;15.35;13.85;;;15.30;99.90;;;;;;5050884;28;20481;-74
2023/06/17 03:09:05;;;;;;;17.08;14.57;;;15.20;99.90;;;;;;5050761;28;20069;-74
2023/06/17 03:11:31;;;;;;;16.23;14.50;;;15.30;99.90;;;;;;5051029;28;20036;-74
2023/06/17 03:13:57;;;;;;;16.15;14.45;;;15.20;99.90;;;;;;5050621;28;20773;-73
2023/06/17 03:16:25;;;;;;;12.63;11.43;;;15.30;99.90;;;;;;5051013;28;20139;-73
2023/06/17 03:18:51;;;;;;;15.55;13.68;;;15.30;99.90;;;;;;5050177;28;20025;-73
2023/06/17 03:21:17;;;;;;;14.27;12.88;;;15.20;99.90;;;;;;5050663;28;20036;-73
2023/06/17 03:23:43;;;;;;;17.48;14.90;;;15.20;99.90;;;;;;5050395;28;20021;-74
2023/06/17 03:26:11;;;;;;;16.27;14.70;;;15.30;99.90;;;;;;5050864;28;20070;-72
2023/06/17 03:28:37;;;;;;;15.93;14.23;;;15.20;99.90;;;;;;5050878;28;20107;-73
2023/06/17 03:31:03;;;;;;;14.93;12.65;;;15.20;99.90;;;;;;5050088;28;20505;-73
2023/06/17 03:33:29;;;;;;;14.93;12.90;;;15.20;99.90;;;;;;5050852;28;20463;-73
2023/06/17 03:35:55;;;;;;;12.68;11.40;;;15.20;99.90;;;;;;5049990;28;20063;-73
2023/06/17 03:38:21;;;;;;;12.68;11.48;;;15.20;99.90;;;;;;5050698;28;20060;-73
2023/06/17 03:40:47;;;;;;;13.43;12.13;;;15.20;99.90;;;;;;5049835;28;20458;-73
2023/06/17 03:43:16;;;;;;;13.75;11.50;;;15.20;99.90;;;;;;5050740;28;20025;-73
2023/06/17 03:45:42;;;;;;;13.23;11.77;;;15.20;99.90;;;;;;5050307;28;20059;-75
2023/06/17 03:48:07;;;;;;;15.43;12.57;;;15.20;99.90;;;;;;5050481;28;20355;-73
2023/06/17 03:50:34;;;;;;;15.40;11.77;;;15.20;99.90;;;;;;5049357;28;20025;-73
2023/06/17 03:53:00;;;;;;;12.55;11.32;;;15.20;99.90;;;;;;5049821;28;20025;-73
2023/06/17 03:55:25;;;;;;;11.38;10.13;;;15.20;99.90;;;;;;5050989;28;20025;-73
2023/06/17 03:57:52;;;;;;;12.20;11.00;;;15.20;99.90;;;;;;5050167;28;20413;-74
2023/06/17 04:00:19;;;;;;;12.50;11.20;;;15.10;99.90;;;;;;5051267;28;20029;-74
2023/06/17 04:02:47;;;;;;;13.23;11.45;;;15.20;99.90;;;;;;5054030;28;20124;-75
2023/06/17 04:05:13;;;;;;;11.65;10.55;;;15.10;99.90;;;;;;5054194;28;20031;-75
2023/06/17 04:07:42;;;;;;;12.80;11.52;;;15.10;99.90;;;;;;5054201;28;20091;-75
2023/06/17 04:10:08;;;;;;;13.68;12.13;;;15.20;99.90;;;;;;5052722;28;20059;-74
2023/06/17 04:12:38;;;;;;;13.40;11.85;;;15.20;99.90;;;;;;5054197;28;20025;-74
2023/06/17 04:15:06;;;;;;;14.15;12.63;;;15.10;99.90;;;;;;5053604;28;20025;-74
2023/06/17 04:17:32;;;;;;;16.60;13.07;;;15.10;99.90;;;;;;5052362;28;20033;-74
2023/06/17 04:20:04;;;;;;;14.30;12.77;;;15.10;99.90;;;;;;5053503;28;20048;-74
2023/06/17 04:22:30;;;;;;;16.35;14.63;;;15.10;99.90;;;;;;5054081;28;20029;-74
2023/06/17 04:24:57;;;;;;;13.40;12.10;;;15.10;99.90;;;;;;5053410;28;20036;-73
2023/06/17 04:27:23;;;;;;;14.43;12.98;;;15.10;99.90;;;;;;5053762;28;20053;-74
2023/06/17 04:29:49;;;;;;;18.23;16.35;;;15.10;99.90;;;;;;5053305;28;20048;-74
2023/06/17 04:32:16;;;;;;;17.73;15.23;;;15.10;99.90;;;;;;5054026;28;20405;-74
2023/06/17 04:34:48;;;;;;;17.77;15.88;;;15.00;99.90;;;;;;5054336;28;20116;-74
2023/06/17 04:37:14;;;;;;;18.03;16.33;;;15.00;99.90;;;;;;5053832;28;20120;-74
2023/06/17 04:39:42;;;;;;;16.33;14.73;;;15.00;99.90;;;;;;5053813;28;20602;-74
2023/06/17 04:42:09;;;;;;;20.88;18.63;;;15.00;99.90;;;;;;5053028;28;20084;-73
2023/06/17 04:44:37;;;;;;;21.13;18.75;;;15.10;99.90;;;;;;5053704;28;20035;-73
2023/06/17 04:47:04;;;;;;;25.95;20.58;;;15.00;99.90;;;;;;5053064;28;20029;-73
2023/06/17 04:49:35;;;;;;;20.50;18.15;;;15.00;99.90;;;;;;5053504;28;20036;-72
2023/06/17 04:52:01;;;;;;;19.85;17.73;;;15.00;99.90;;;;;;5052609;28;20029;-74
2023/06/17 04:54:28;;;;;;;22.65;20.27;;;15.10;99.90;;;;;;5053212;28;20021;-73
2023/06/17 04:56:54;;;;;;;22.40;19.52;;;15.10;99.90;;;;;;5052646;28;20025;-73
2023/06/17 04:59:20;;;;;;;23.98;21.00;;;15.00;99.90;;;;;;5053112;28;20432;-73
2023/06/17 05:01:45;;;;;;;24.08;21.35;;;15.00;99.90;;;;;;5052905;28;20098;-76
2023/06/17 05:04:11;;;;;;;24.35;21.73;;;15.10;99.90;;;;;;5052803;28;20059;-73
2023/06/17 05:06:37;;;;;;;26.30;21.27;;;15.10;99.90;;;;;;5052644;28;20359;-73
2023/06/17 05:09:03;;;;;;;26.92;21.05;;;15.20;99.90;;;;;;5052271;28;20033;-73
2023/06/17 05:11:29;;;;;;;21.58;19.30;;;15.30;99.90;;;;;;5052227;28;20029;-73
2023/06/17 05:13:55;;;;;;;23.60;20.63;;;15.20;99.90;;;;;;5050155;28;20396;-73
2023/06/17 05:16:20;;;;;;;23.33;20.25;;;15.30;99.90;;;;;;5052683;28;20025;-73
2023/06/17 05:18:46;;;;;;;21.63;19.23;;;15.30;99.90;;;;;;5052415;28;20466;-75
2023/06/17 05:21:12;;;;;;;19.77;17.65;;;15.40;99.90;;;;;;5052372;28;20021;-73
2023/06/17 05:23:38;;;;;;;18.70;16.83;;;15.40;99.90;;;;;;5052886;28;20108;-73
2023/06/17 05:26:03;;;;;;;19.20;17.20;;;15.50;99.90;;;;;;5051952;28;20029;-73
2023/06/17 05:28:29;;;;;;;20.00;18.00;;;15.60;99.90;;;;;;5052367;28;20041;-73
2023/06/17 05:30:55;;;;;;;19.48;17.38;;;15.60;99.90;;;;;;5050453;28;20454;-74
2023/06/17 05:33:20;;;;;;;18.80;16.92;;;15.50;99.90;;;;;;5052587;28;20064;-73
2023/06/17 05:35:46;;;;;;;18.55;16.77;;;15.60;99.90;;;;;;5052164;28;20366;-73
2023/06/17 05:38:12;;;;;;;16.75;14.55;;;15.50;99.90;;;;;;5051779;28;20044;-73
2023/06/17 05:40:37;;;;;;;18.38;14.98;;;15.60;99.90;;;;;;5052207;28;20124;-73
2023/06/17 05:43:03;;;;;;;14.73;13.18;;;15.70;99.90;;;;;;5051594;28;20454;-74
2023/06/17 05:45:29;;;;;;;13.93;12.52;;;15.70;99.90;;;;;;5050620;28;20036;-73
2023/06/17 05:47:55;;;;;;;15.25;13.65;;;15.90;99.90;;;;;;5050273;28;20045;-73
2023/06/17 05:50:21;;;;;;;16.13;14.48;;;16.00;99.90;;;;;;5051977;28;20025;-73
2023/06/17 05:52:47;;;;;;;13.63;12.32;;;16.20;99.90;;;;;;5052027;28;20033;-73
2023/06/17 05:55:13;;;;;;;16.08;14.38;;;16.30;99.90;;;;;;5051618;28;20032;-74
2023/06/17 05:57:38;;;;;;;16.98;15.35;;;16.40;99.90;;;;;;5051489;28;20111;-73
2023/06/17 06:00:05;;;;;;;14.77;13.27;;;16.30;99.90;;;;;;5051495;28;20045;-73
2023/06/17 06:02:30;;;;;;;14.77;13.38;;;16.30;99.90;;;;;;5051528;28;20060;-74
2023/06/17 06:04:56;;;;;;;16.48;14.43;;;16.40;99.90;;;;;;5051178;28;20059;-73
2023/06/17 06:07:22;;;;;;;15.45;14.00;;;16.30;99.90;;;;;;5050224;28;20021;-73
2023/06/17 06:09:48;;;;;;;15.68;14.05;;;16.30;99.90;;;;;;5051145;28;20048;-73
2023/06/17 06:12:14;;;;;;;14.55;13.05;;;16.30;99.90;;;;;;5051095;28;20061;-73
2023/06/17 06:14:39;;;;;;;16.55;14.77;;;16.20;99.90;;;;;;5051862;28;20032;-73
2023/06/17 06:17:05;;;;;;;15.43;13.90;;;16.30;99.90;;;;;;5050750;28;20037;-74
2023/06/17 06:19:31;;;;;;;16.08;14.45;;;16.30;99.90;;;;;;5051806;28;20473;-73
2023/06/17 06:21:56;;;;;;;12.95;11.25;;;16.30;99.90;;;;;;5050940;28;20055;-73
2023/06/17 06:24:22;;;;;;;18.52;14.15;;;16.40;99.90;;;;;;5052178;28;20459;-74
2023/06/17 06:26:48;;;;;;;15.60;14.02;;;16.60;99.90;;;;;;5051345;28;20049;-74
2023/06/17 06:29:14;;;;;;;15.65;14.15;;;16.80;99.90;;;;;;5050818;28;20386;-73
2023/06/17 06:31:43;;;;;;;15.30;12.90;;;17.10;99.90;;;;;;5051373;28;20017;-73
2023/06/17 06:34:09;;;;;;;12.63;11.32;;;17.00;99.90;;;;;;5050747;28;20037;-74
2023/06/17 06:36:35;;;;;;;12.52;11.32;;;16.90;99.90;;;;;;5051565;28;20171;-74
2023/06/17 06:39:01;;;;;;;13.77;12.45;;;17.00;99.90;;;;;;5050855;28;20037;-74
2023/06/17 06:41:26;;;;;;;15.00;13.20;;;17.00;99.90;;;;;;5051156;28;20033;-73
2023/06/17 06:43:52;;;;;;;13.65;11.13;;;17.00;99.90;;;;;;5050832;28;20031;-75
2023/06/17 06:46:18;;;;;;;15.57;11.63;;;17.10;99.90;;;;;;5050888;28;20114;-74
2023/06/17 06:48:44;;;;;;;11.88;10.82;;;17.20;99.90;;;;;;5050801;28;20111;-73
2023/06/17 06:51:09;;;;;;;13.88;12.48;;;17.20;99.90;;;;;;5050324;28;20116;-73
2023/06/17 06:53:35;;;;;;;14.02;10.85;;;17.40;99.90;;;;;;5050991;28;20116;-73
2023/06/17 06:56:01;;;;;;;11.13;10.02;;;17.50;99.90;;;;;;5049950;28;20447;-73
2023/06/17 06:58:26;;;;;;;9.25;8.35;;;17.60;99.90;;;;;;5050732;28;20033;-73
2023/06/17 07:00:52;;;;;;;11.23;10.15;;;17.60;99.90;;;;;;5050344;28;20056;-75
2023/06/17 07:03:18;;;;;;;10.45;9.35;;;17.50;99.90;;;;;;5050235;28;20029;-73
2023/06/17 07:05:44;;;;;;;11.70;10.60;;;17.50;99.90;;;;;;5050499;28;20076;-73
2023/06/17 07:08:09;;;;;;;10.77;9.73;;;17.50;99.90;;;;;;5050101;28;20036;-73
2023/06/17 07:10:39;;;;;;;11.57;10.48;;;17.50;99.90;;;;;;5050511;28;20470;-73
2023/06/17 07:13:06;;;;;;;11.52;10.18;;;17.40;99.90;;;;;;5050189;28;20078;-74
2023/06/17 07:15:32;;;;;;;18.83;14.05;;;17.50;99.90;;;;;;5051069;28;20040;-77
2023/06/17 07:17:57;;;;;;;15.32;11.93;;;17.40;99.90;;;;;;5052249;28;20033;-79
2023/06/17 07:20:23;;;;;;;13.38;11.98;;;17.40;99.90;;;;;;5050344;28;20029;-77
2023/06/17 07:22:49;;;;;;;13.30;11.90;;;17.40;99.90;;;;;;5050567;28;20493;-79
2023/06/17 07:25:15;;;;;;;20.55;15.15;;;17.30;99.90;;;;;;5051008;28;20072;-83
2023/06/17 07:27:40;;;;;;;16.10;12.93;;;17.30;99.90;;;;;;5050740;28;20048;-77
2023/06/17 07:30:07;;;;;;;14.52;12.98;;;17.20;99.90;;;;;;5050580;28;20024;-75
2023/06/17 07:32:33;;;;;;;16.90;15.35;;;17.20;99.90;;;;;;5051058;28;20052;-74
2023/06/17 07:34:59;;;;;;;16.10;14.50;;;17.30;99.90;;;;;;5049862;28;20466;-75
2023/06/17 07:37:25;;;;;;;16.13;14.55;;;17.30;99.90;;;;;;5050830;28;20425;-74
2023/06/17 07:39:50;;;;;;;14.20;12.80;;;17.20;99.90;;;;;;5050610;28;20037;-73
2023/06/17 07:42:19;;;;;;;15.05;13.52;;;17.20;99.90;;;;;;5049597;28;20024;-72
2023/06/17 07:44:45;;;;;;;14.82;13.32;;;17.20;99.90;;;;;;5050201;28;20028;-73
2023/06/17 07:47:11;;;;;;;14.50;13.13;;;17.20;99.90;;;;;;5049841;28;20393;-73
2023/06/17 07:49:36;;;;;;;13.80;12.43;;;17.20;99.90;;;;;;5049672;28;20036;-73
2023/06/17 07:52:03;;;;;;;14.35;12.98;;;17.20;99.90;;;;;;5049684;28;20086;-73
2023/06/17 07:54:30;;;;;;;14.50;12.88;;;17.20;99.90;;;;;;5049745;28;20100;-72
2023/06/17 07:56:56;;;;;;;14.85;12.98;;;17.20;99.90;;;;;;5050035;28;20100;-75
2023/06/17 07:59:22;;;;;;;13.35;12.00;;;17.20;99.90;;;;;;5049753;28;20469;-70
2023/06/17 08:01:47;;;;;;;12.27;11.15;;;17.20;99.90;;;;;;5049864;28;20029;-71
2023/06/17 08:04:13;;;;;;;13.65;12.30;;;17.20;99.90;;;;;;5049644;28;20048;-70
2023/06/17 08:06:40;;;;;;;13.27;12.00;;;17.20;99.90;;;;;;5049760;28;20025;-72
2023/06/17 08:09:06;;;;;;;13.68;12.40;;;17.20;99.90;;;;;;5049628;28;20094;-71
2023/06/17 08:11:32;;;;;;;13.45;11.70;;;17.20;99.90;;;;;;5050287;28;20029;-73
2023/06/17 08:13:58;;;;;;;13.15;11.95;;;17.20;99.90;;;;;;5050014;28;20087;-73
2023/06/17 08:16:24;;;;;;;13.45;11.70;;;17.20;99.90;;;;;;5050183;28;20025;-72
2023/06/17 08:18:49;;;;;;;19.35;12.25;;;17.20;99.90;;;;;;5049921;28;20036;-73
2023/06/17 08:21:15;;;;;;;14.20;12.15;;;17.20;99.90;;;;;;5050307;28;20116;-71
2023/06/17 08:23:41;;;;;;;13.30;11.90;;;17.20;99.90;;;;;;5050366;28;20439;-71
2023/06/17 08:26:07;;;;;;;11.55;10.48;;;17.20;99.90;;;;;;5049239;28;20061;-72
2023/06/17 08:28:33;;;;;;;11.38;9.80;;;17.20;99.90;;;;;;5049357;28;20151;-71
2023/06/17 08:30:58;;;;;;;16.30;12.52;;;17.30;99.90;;;;;;5049603;28;20025;-73
2023/06/17 08:33:25;;;;;;;13.02;11.75;;;17.30;99.90;;;;;;5049048;28;20101;-71
2023/06/17 08:35:50;;;;;;;14.65;12.90;;;17.30;99.90;;;;;;5049686;28;20045;-71
2023/06/17 08:38:16;;;;;;;12.10;10.95;;;17.30;99.90;;;;;;5049367;28;20036;-71
2023/06/17 08:40:47;;;;;;;14.10;12.60;;;17.30;99.90;;;;;;5049885;28;20022;-71
2023/06/17 08:43:17;;;;;;;12.70;11.60;;;17.30;99.90;;;;;;5049416;28;20021;-71
2023/06/17 08:45:46;;;;;;;16.17;12.40;;;17.20;99.90;;;;;;5049829;28;20029;-71
2023/06/17 08:48:12;;;;;;;11.27;9.75;;;17.20;99.90;;;;;;5051154;28;20040;-72
2023/06/17 08:50:39;;;;;;;13.45;12.23;;;17.20;99.90;;;;;;5053151;28;20029;-72
2023/06/17 08:53:05;;;;;;;13.27;11.80;;;17.20;99.90;;;;;;5052640;28;20047;-72
2023/06/17 08:55:31;;;;;;;16.02;14.32;;;17.20;99.90;;;;;;5053249;28;20028;-71
2023/06/17 08:57:57;;;;;;;17.40;14.82;;;17.10;99.90;;;;;;5053315;28;20029;-72
2023/06/17 09:00:23;;;;;;;14.05;12.70;;;17.10;99.90;;;;;;5052456;28;20037;-72
2023/06/17 09:02:49;;;;;;;16.63;14.88;;;17.10;99.90;;;;;;5051484;28;20032;-71
2023/06/17 09:05:16;;;;;;;14.18;12.77;;;17.10;99.90;;;;;;5052293;28;20053;-72
2023/06/17 09:07:42;;;;;;;17.83;16.02;;;17.00;99.90;;;;;;5053125;28;20031;-72
2023/06/17 09:10:11;;;;;;;17.10;15.32;;;17.00;99.90;;;;;;5052529;28;20086;-72
2023/06/17 09:12:38;;;;;;;19.40;17.00;;;17.10;99.90;;;;;;5052389;28;20025;-72
2023/06/17 09:15:08;;;;;;;18.50;16.40;;;16.90;99.90;;;;;;5052546;28;20090;-74
2023/06/17 09:17:37;;;;;;;20.85;17.02;;;16.90;99.90;;;;;;5053031;28;20067;-74
2023/06/17 09:20:11;;;;;;;18.75;16.85;;;16.80;99.90;;;;;;5052240;28;20029;-75
2023/06/17 09:22:44;;;;;;;19.00;17.10;;;16.80;99.90;;;;;;5053166;28;20475;-74
2023/06/17 09:25:15;;;;;;;20.38;18.17;;;16.70;99.90;;;;;;5052274;28;20108;-74
2023/06/17 09:27:45;;;;;;;19.42;17.48;;;16.70;99.90;;;;;;5052558;28;20049;-74
2023/06/17 09:30:13;;;;;;;20.45;18.48;;;16.70;99.90;;;;;;5052121;28;20133;-73
2023/06/17 09:32:42;;;;;;;21.25;19.05;;;16.70;99.90;;;;;;5051708;28;20355;-75
2023/06/17 09:35:15;;;;;;;20.60;18.48;;;16.70;99.90;;;;;;5051858;28;20032;-74
2023/06/17 09:37:42;;;;;;;21.63;19.48;;;16.70;99.90;;;;;;5050535;28;20029;-74
2023/06/17 09:40:09;;;;;;;23.52;20.77;;;16.60;99.90;;;;;;5051559;28;20102;-73
2023/06/17 09:42:34;;;;;;;24.63;20.48;;;16.60;99.90;;;;;;5052046;28;20025;-73
2023/06/17 09:45:06;;;;;;;22.58;19.42;;;16.60;99.90;;;;;;5051792;28;20075;-72
2023/06/17 09:47:32;;;;;;;23.67;21.13;;;16.60;99.90;;;;;;5052361;28;20091;-72
2023/06/17 09:50:03;;;;;;;26.02;21.17;;;16.60;99.90;;;;;;5051911;28;20512;-72
2023/06/17 09:52:32;;;;;;;21.48;18.65;;;16.50;99.90;;;;;;5051434;28;20025;-72
2023/06/17 09:54:58;;;;;;;35.08;22.60;;;16.60;99.90;;;;;;5052019;28;20457;-73
2023/06/17 09:57:31;;;;;;;31.25;22.30;;;16.60;99.90;;;;;;5051528;28;20448;-72
2023/06/17 10:00:10;;;;;;;25.17;21.13;;;16.60;99.90;;;;;;5051469;28;20033;-72
2023/06/17 10:02:39;;;;;;;34.38;22.15;;;16.60;99.90;;;;;;5050287;28;20068;-72
2023/06/17 10:05:11;;;;;;;28.67;19.88;;;16.60;99.90;;;;;;5051282;28;20117;-74
2023/06/17 10:07:39;;;;;;;22.65;20.20;;;16.60;99.90;;;;;;5050487;28;20101;-72
2023/06/17 10:10:08;;;;;;;26.05;19.90;;;16.60;99.90;;;;;;5051354;28;20041;-73
2023/06/17 10:12:36;;;;;;;25.40;20.50;;;16.60;99.90;;;;;;5051377;28;20032;-72
2023/06/17 10:15:03;;;;;;;19.65;17.50;;;16.50;99.90;;;;;;5051571;28;20059;-72
2023/06/17 10:17:31;;;;;;;22.60;18.77;;;16.70;99.90;;;;;;5050902;28;20021;-72
2023/06/17 10:20:01;;;;;;;22.08;18.50;;;16.70;99.90;;;;;;5050156;28;20116;-71
2023/06/17 10:22:27;;;;;;;23.70;19.65;;;16.80;99.90;;;;;;5050740;28;20036;-72
2023/06/17 10:24:53;;;;;;;22.42;17.92;;;16.90;99.90;;;;;;5051551;28;20021;-72
2023/06/17 10:27:22;;;;;;;20.42;17.67;;;16.80;99.90;;;;;;5050585;28;20398;-72
2023/06/17 10:29:49;;;;;;;19.25;16.15;;;16.90;99.90;;;;;;5050915;28;20029;-71
2023/06/17 10:32:25;;;;;;;19.88;17.67;;;16.90;99.90;;;;;;5050582;28;20541;-72
2023/06/17 10:35:06;;;;;;;18.88;16.58;;;16.90;99.90;;;;;;5051238;28;20021;-72
2023/06/17 10:37:44;;;;;;;17.02;13.43;;;17.10;99.90;;;;;;5050755;28;20074;-71
2023/06/17 10:40:26;;;;;;;16.60;14.88;;;17.20;99.90;;;;;;5050573;28;20021;-72
2023/06/17 10:43:00;;;;;;;20.38;16.27;;;17.30;99.90;;;;;;5051013;28;20079;-71
2023/06/17 10:45:30;;;;;;;18.17;16.25;;;17.30;99.90;;;;;;5050354;28;20035;-71
2023/06/17 10:48:23;;;;;;;17.08;15.15;;;17.30;99.90;;;;;;5051346;28;20105;-71
2023/06/17 10:50:54;;;;;;;19.85;14.10;;;17.30;99.90;;;;;;5046645;28;20052;-72
2023/06/17 10:53:29;;;;;;;18.30;14.32;;;17.40;99.90;;;;;;5049134;28;20031;-72
2023/06/17 10:55:56;;;;;;;16.60;13.38;;;17.40;99.90;;;;;;5050790;28;20109;-72
2023/06/17 10:58:22;;;;;;;15.73;14.07;;;17.40;99.90;;;;;;5050724;28;20033;-72
2023/06/17 11:00:58;;;;;;;21.98;16.08;;;17.60;99.90;;;;;;5051039;28;20025;-73
2023/06/17 11:03:24;;;;;;;16.15;14.25;;;17.80;99.90;;;;;;5050364;28;20032;-72
2023/06/17 11:05:50;;;;;;;16.08;13.82;;;17.80;99.90;;;;;;5050769;28;20025;-72
2023/06/17 11:08:16;;;;;;;14.23;12.52;;;17.80;99.90;;;;;;5050295;28;20037;-73
2023/06/17 11:10:41;;;;;;;15.13;12.75;;;18.00;99.90;;;;;;5049671;28;20409;-72
2023/06/17 11:13:07;;;;;;;16.23;13.38;;;18.10;99.90;;;;;;5049126;28;20051;-72
2023/06/17 11:15:33;;;;;;;15.25;13.05;;;18.10;99.90;;;;;;5049098;28;20056;-72
2023/06/17 11:18:03;;;;;;;16.35;13.77;;;18.20;99.90;;;;;;5051439;28;20453;-73
2023/06/17 11:20:37;;;;;;;15.77;13.80;;;18.30;99.90;;;;;;5050606;28;20509;-72
2023/06/17 11:23:03;;;;;;;15.07;12.93;;;18.20;99.90;;;;;;5050704;28;20033;-73
2023/06/17 11:25:30;;;;;;;16.23;13.00;;;18.30;99.90;;;;;;5050261;28;20021;-72
2023/06/17 11:27:56;;;;;;;14.02;12.70;;;18.20;99.90;;;;;;5050654;28;20435;-74
2023/06/17 11:30:26;;;;;;;13.85;12.35;;;18.20;99.90;;;;;;5050100;28;20052;-73
2023/06/17 11:32:51;;;;;;;14.43;12.93;;;18.30;99.90;;;;;;5051076;28;20023;-73
2023/06/17 11:35:17;;;;;;;12.13;10.43;;;18.40;99.90;;;;;;5050048;28;20116;-73
2023/06/17 11:37:46;;;;;;;12.32;11.10;;;18.70;99.90;;;;;;5051038;28;20445;-74
2023/06/17 11:40:12;;;;;;;12.30;11.10;;;18.90;99.90;;;;;;5050245;28;20044;-75
2023/06/17 11:42:40;;;;;;;15.20;11.90;;;19.20;99.90;;;;;;5050607;28;20025;-74
2023/06/17 11:45:06;;;;;;;13.68;11.25;;;19.30;99.90;;;;;;5050448;28;20056;-72
2023/06/17 11:47:34;;;;;;;12.75;10.38;;;19.20;99.90;;;;;;5051430;28;20414;-71
2023/06/17 11:49:59;;;;;;;14.85;10.88;;;19.20;99.90;;;;;;5050709;28;20025;-71
2023/06/17 11:52:25;;;;;;;13.65;11.73;;;19.00;99.90;;;;;;5051564;28;20032;-71
2023/06/17 11:54:54;;;;;;;12.38;11.18;;;18.80;99.90;;;;;;5050272;28;20025;-72
2023/06/17 11:57:25;;;;;;;15.35;11.98;;;18.70;99.90;;;;;;5050775;28;20057;-73
2023/06/17 11:59:52;;;;;;;13.15;11.77;;;18.40;99.90;;;;;;5050727;28;20108;-71
2023/06/17 12:02:18;;;;;;;13.85;12.45;;;18.30;99.90;;;;;;5050403;28;20032;-72
2023/06/17 12:04:47;;;;;;;15.07;12.00;;;18.40;99.90;;;;;;5052333;28;20029;-73
2023/06/17 12:07:13;;;;;;;17.60;12.98;;;18.30;99.90;;;;;;5051536;28;20080;-72
2023/06/17 12:09:50;;;;;;;13.70;12.15;;;18.10;99.90;;;;;;5050738;28;20044;-73
2023/06/17 12:12:26;;;;;;;16.67;12.15;;;18.10;99.90;;;;;;5049636;28;20029;-72
2023/06/17 12:15:07;;;;;;;14.45;12.85;;;18.10;99.90;;;;;;5050644;28;20025;-72
2023/06/17 12:17:46;;;;;;;14.68;13.18;;;18.10;99.90;;;;;;5048879;28;20040;-74
2023/06/17 12:20:17;;;;;;;13.88;12.48;;;18.30;99.90;;;;;;5049826;28;20032;-73
2023/06/17 12:22:43;;;;;;;14.35;11.32;;;18.60;99.90;;;;;;5052874;28;20033;-71
2023/06/17 12:25:11;;;;;;;13.55;11.65;;;18.90;99.90;;;;;;5053700;28;20029;-71
2023/06/17 12:27:37;;;;;;;12.27;10.98;;;19.00;99.90;;;;;;5053020;28;20059;-71
2023/06/17 12:30:05;;;;;;;12.55;11.25;;;19.00;99.90;;;;;;5053614;28;20111;-72